createdAt,value
2022-10-23T00:00:06.037Z,0.00
2022-10-23T00:01:02.982Z,0.00
2022-10-23T00:02:03.021Z,0.00
2022-10-23T00:03:02.954Z,0.00
2022-10-23T00:04:02.936Z,0.00
2022-10-23T00:05:03.060Z,0.00
2022-10-23T00:06:02.913Z,0.00
2022-10-23T00:07:02.939Z,0.00
2022-10-23T00:08:02.936Z,0.00
2022-10-23T00:09:02.878Z,0.00
2022-10-23T00:10:02.869Z,0.00
2022-10-23T00:11:02.864Z,0.00
2022-10-23T00:12:02.840Z,0.00
2022-10-23T00:13:02.837Z,0.00
2022-10-23T00:14:02.832Z,0.00
2022-10-23T00:15:05.810Z,0.00
2022-10-23T00:16:02.822Z,0.00
2022-10-23T00:17:02.804Z,0.00
2022-10-23T00:18:02.784Z,0.00
2022-10-23T00:19:02.785Z,0.00
2022-10-23T00:20:02.761Z,0.00
2022-10-23T00:21:02.749Z,0.00
2022-10-23T00:22:02.754Z,0.00
2022-10-23T00:23:02.732Z,0.00
2022-10-23T00:24:02.778Z,0.00
2022-10-23T00:25:02.704Z,0.00
2022-10-23T00:26:02.701Z,0.00
2022-10-23T00:27:02.814Z,0.00
2022-10-23T00:28:02.673Z,0.00
2022-10-23T00:29:02.686Z,0.00
2022-10-23T00:30:05.654Z,0.00
2022-10-23T00:31:02.666Z,0.00
2022-10-23T00:32:02.636Z,0.00
2022-10-23T00:33:02.640Z,0.00
2022-10-23T00:34:02.633Z,0.00
2022-10-23T00:35:02.598Z,0.00
2022-10-23T00:36:02.614Z,0.00
2022-10-23T00:37:02.607Z,0.00
2022-10-23T00:38:02.579Z,0.00
2022-10-23T00:39:02.555Z,0.00
2022-10-23T00:40:02.575Z,0.00
2022-10-23T00:41:02.541Z,0.00
2022-10-23T00:42:02.547Z,0.00
2022-10-23T00:43:02.525Z,0.00
2022-10-23T00:44:02.614Z,0.00
2022-10-23T00:45:05.515Z,0.00
2022-10-23T00:46:02.516Z,0.00
2022-10-23T00:47:02.476Z,0.00
2022-10-23T00:48:02.460Z,0.00
2022-10-23T00:49:02.538Z,0.00
2022-10-23T00:50:02.448Z,0.00
2022-10-23T00:51:02.460Z,0.00
2022-10-23T00:52:02.430Z,0.00
2022-10-23T00:53:02.409Z,0.00
2022-10-23T00:54:23.034Z,0.00
2022-10-23T00:55:03.398Z,0.00
2022-10-23T00:56:02.400Z,0.00
2022-10-23T00:57:02.380Z,0.00
2022-10-23T00:58:02.363Z,0.00
2022-10-23T00:59:02.377Z,0.00
2022-10-23T01:00:05.340Z,0.00
2022-10-23T01:01:02.359Z,0.00
2022-10-23T01:02:02.406Z,0.00
2022-10-23T01:03:02.311Z,0.00
2022-10-23T01:04:02.330Z,0.00
2022-10-23T01:05:02.291Z,0.00
2022-10-23T01:06:02.274Z,0.00
2022-10-23T01:07:02.271Z,0.00
2022-10-23T01:08:02.255Z,0.00
2022-10-23T01:09:02.241Z,0.00
2022-10-23T01:10:02.233Z,0.00
2022-10-23T01:11:02.223Z,0.00
2022-10-23T01:12:02.214Z,0.00
2022-10-23T01:13:02.214Z,0.00
2022-10-23T01:15:05.191Z,0.00
2022-10-23T01:16:02.191Z,0.00
2022-10-23T01:17:02.155Z,0.00
2022-10-23T01:18:02.154Z,0.00
2022-10-23T01:19:02.153Z,0.00
2022-10-23T01:20:02.162Z,0.00
2022-10-23T01:21:02.125Z,0.00
2022-10-23T01:22:02.115Z,0.00
2022-10-23T01:23:02.110Z,0.00
2022-10-23T01:24:02.097Z,0.00
2022-10-23T01:25:02.131Z,0.00
2022-10-23T01:26:02.077Z,0.00
2022-10-23T01:27:02.058Z,0.00
2022-10-23T01:28:02.037Z,0.00
2022-10-23T01:29:02.039Z,0.00
2022-10-23T01:30:05.127Z,0.00
2022-10-23T01:31:02.098Z,0.00
2022-10-23T01:32:02.017Z,0.00
2022-10-23T01:33:02.001Z,0.00
2022-10-23T01:34:01.989Z,0.00
2022-10-23T01:35:01.977Z,0.00
2022-10-23T01:36:01.984Z,0.00
2022-10-23T01:37:01.987Z,0.00
2022-10-23T01:38:01.941Z,0.00
2022-10-23T01:40:01.921Z,0.00
2022-10-23T01:41:01.950Z,0.00
2022-10-23T01:42:01.899Z,0.00
2022-10-23T01:43:01.899Z,0.00
2022-10-23T01:44:01.886Z,0.00
2022-10-23T01:45:04.881Z,0.00
2022-10-23T01:46:01.911Z,0.00
2022-10-23T01:47:01.851Z,0.00
2022-10-23T01:48:01.841Z,0.00
2022-10-23T01:49:01.832Z,0.00
2022-10-23T01:50:01.834Z,0.00
2022-10-23T01:51:01.804Z,0.00
2022-10-23T01:52:01.810Z,0.00
2022-10-23T01:53:01.796Z,0.00
2022-10-23T01:54:01.775Z,0.00
2022-10-23T01:55:01.765Z,0.00
2022-10-23T01:56:01.773Z,0.00
2022-10-23T01:57:01.770Z,0.00
2022-10-23T01:58:01.734Z,0.00
2022-10-23T01:59:01.746Z,0.00
2022-10-23T02:00:04.714Z,0.00
2022-10-23T02:01:01.749Z,0.00
2022-10-23T02:02:01.800Z,0.00
2022-10-23T02:03:01.698Z,0.00
2022-10-23T02:04:01.750Z,0.00
2022-10-23T02:05:01.664Z,0.00
2022-10-23T02:06:01.644Z,0.00
2022-10-23T02:07:01.636Z,0.00
2022-10-23T02:08:01.624Z,0.00
2022-10-23T02:09:01.626Z,0.00
2022-10-23T02:10:01.606Z,0.00
2022-10-23T02:11:01.601Z,0.00
2022-10-23T02:12:01.588Z,0.00
2022-10-23T02:13:01.584Z,0.00
2022-10-23T02:14:01.567Z,0.00
2022-10-23T02:15:04.561Z,0.00
2022-10-23T02:16:01.564Z,0.00
2022-10-23T02:17:01.568Z,0.00
2022-10-23T02:18:01.534Z,0.00
2022-10-23T02:19:01.509Z,0.00
2022-10-23T02:20:01.588Z,0.00
2022-10-23T02:21:01.501Z,0.00
2022-10-23T02:22:06.578Z,0.00
2022-10-23T02:23:01.470Z,0.00
2022-10-23T02:24:01.466Z,0.00
2022-10-23T02:25:01.464Z,0.00
2022-10-23T02:26:01.450Z,0.00
2022-10-23T02:27:01.492Z,0.00
2022-10-23T02:28:01.429Z,0.00
2022-10-23T02:29:01.458Z,0.00
2022-10-23T02:30:04.404Z,0.00
2022-10-23T02:31:01.412Z,0.00
2022-10-23T02:32:01.392Z,0.00
2022-10-23T02:33:01.420Z,0.00
2022-10-23T02:34:01.360Z,0.00
2022-10-23T02:35:01.350Z,0.00
2022-10-23T02:36:01.338Z,0.00
2022-10-23T02:37:01.332Z,0.00
2022-10-23T02:38:01.405Z,0.00
2022-10-23T02:39:01.312Z,0.00
2022-10-23T02:40:01.304Z,0.00
2022-10-23T02:41:01.282Z,0.00
2022-10-23T02:42:01.286Z,0.00
2022-10-23T02:43:01.289Z,0.00
2022-10-23T02:44:01.262Z,0.00
2022-10-23T02:45:04.244Z,0.00
2022-10-23T02:46:01.305Z,0.00
2022-10-23T02:47:01.224Z,0.00
2022-10-23T02:48:01.215Z,0.00
2022-10-23T02:49:01.204Z,0.00
2022-10-23T02:50:01.190Z,0.00
2022-10-23T02:51:01.229Z,0.00
2022-10-23T02:52:01.176Z,0.00
2022-10-23T02:53:01.155Z,0.00
2022-10-23T02:54:01.150Z,0.00
2022-10-23T02:55:01.145Z,0.00
2022-10-23T02:56:01.198Z,0.00
2022-10-23T02:57:01.115Z,0.00
2022-10-23T02:58:01.107Z,0.00
2022-10-23T02:59:01.103Z,0.00
2022-10-23T03:00:04.088Z,0.00
2022-10-23T03:01:01.131Z,0.00
2022-10-23T03:02:01.156Z,0.00
2022-10-23T03:03:01.067Z,0.00
2022-10-23T03:04:01.037Z,0.00
2022-10-23T03:05:01.027Z,0.00
2022-10-23T03:06:01.017Z,0.00
2022-10-23T03:07:01.061Z,0.00
2022-10-23T03:08:00.997Z,0.00
2022-10-23T03:09:00.989Z,0.00
2022-10-23T03:10:00.989Z,0.00
2022-10-23T03:11:00.971Z,0.00
2022-10-23T03:12:00.981Z,0.00
2022-10-23T03:13:00.952Z,0.00
2022-10-23T03:14:00.941Z,0.00
2022-10-23T03:15:03.957Z,0.00
2022-10-23T03:16:00.931Z,0.00
2022-10-23T03:17:00.911Z,0.00
2022-10-23T03:18:00.896Z,0.00
2022-10-23T03:19:00.928Z,0.00
2022-10-23T03:20:00.909Z,0.00
2022-10-23T03:21:00.871Z,0.00
2022-10-23T03:22:01.845Z,0.00
2022-10-23T03:23:00.841Z,0.00
2022-10-23T03:24:00.845Z,0.00
2022-10-23T03:25:00.823Z,0.00
2022-10-23T03:26:00.821Z,0.00
2022-10-23T03:27:00.823Z,0.00
2022-10-23T03:28:00.797Z,0.00
2022-10-23T03:29:00.806Z,0.00
2022-10-23T03:30:03.781Z,0.00
2022-10-23T03:31:00.783Z,0.00
2022-10-23T03:32:00.766Z,0.00
2022-10-23T03:33:00.754Z,0.00
2022-10-23T03:34:02.236Z,0.00
2022-10-23T03:35:00.742Z,0.00
2022-10-23T03:36:00.714Z,0.00
2022-10-23T03:37:00.697Z,0.00
2022-10-23T03:38:00.705Z,0.00
2022-10-23T03:39:00.685Z,0.00
2022-10-23T03:40:00.675Z,0.00
2022-10-23T03:41:00.664Z,0.00
2022-10-23T03:42:00.667Z,0.00
2022-10-23T03:43:00.646Z,0.00
2022-10-23T03:44:00.728Z,0.00
2022-10-23T03:45:03.634Z,0.00
2022-10-23T03:46:00.630Z,0.00
2022-10-23T03:47:00.628Z,0.00
2022-10-23T03:48:00.596Z,0.00
2022-10-23T03:49:00.608Z,0.00
2022-10-23T03:50:00.587Z,0.00
2022-10-23T03:51:01.508Z,0.00
2022-10-23T03:52:00.547Z,0.00
2022-10-23T03:53:00.541Z,0.00
2022-10-23T03:54:00.549Z,0.00
2022-10-23T03:55:00.520Z,0.00
2022-10-23T03:56:00.503Z,0.00
2022-10-23T03:57:00.503Z,0.00
2022-10-23T03:58:00.492Z,0.00
2022-10-23T03:59:00.503Z,0.00
2022-10-23T04:00:03.472Z,0.00
2022-10-23T04:01:00.529Z,0.00
2022-10-23T04:02:00.798Z,0.00
2022-10-23T04:03:00.436Z,0.00
2022-10-23T04:04:00.422Z,0.00
2022-10-23T04:05:00.440Z,0.00
2022-10-23T04:06:00.402Z,0.00
2022-10-23T04:07:00.395Z,0.00
2022-10-23T04:08:00.381Z,0.00
2022-10-23T04:09:00.467Z,0.00
2022-10-23T04:10:00.365Z,0.00
2022-10-23T04:11:00.352Z,0.00
2022-10-23T04:12:00.356Z,0.00
2022-10-23T04:13:00.333Z,0.00
2022-10-23T04:14:00.331Z,0.00
2022-10-23T04:15:03.317Z,0.00
2022-10-23T04:16:00.315Z,0.00
2022-10-23T04:17:00.288Z,0.00
2022-10-23T04:18:00.288Z,0.00
2022-10-23T04:19:00.274Z,0.00
2022-10-23T04:20:00.266Z,0.00
2022-10-23T04:21:00.248Z,0.00
2022-10-23T04:22:00.338Z,0.00
2022-10-23T04:23:00.225Z,0.00
2022-10-23T04:24:00.222Z,0.00
2022-10-23T04:25:00.220Z,0.00
2022-10-23T04:26:00.201Z,0.00
2022-10-23T04:27:00.205Z,0.00
2022-10-23T04:28:00.177Z,0.00
2022-10-23T04:29:00.212Z,0.00
2022-10-23T04:30:03.157Z,0.00
2022-10-23T04:31:00.168Z,0.00
2022-10-23T04:32:00.129Z,0.00
2022-10-23T04:33:00.131Z,0.00
2022-10-23T04:34:00.205Z,0.00
2022-10-23T04:35:00.159Z,0.00
2022-10-23T04:36:00.130Z,0.00
2022-10-23T04:37:00.087Z,0.00
2022-10-23T04:38:00.107Z,0.00
2022-10-23T04:39:00.072Z,0.00
2022-10-23T04:40:00.069Z,0.00
2022-10-23T04:41:00.051Z,0.00
2022-10-23T04:42:00.034Z,0.00
2022-10-23T04:43:00.038Z,0.00
2022-10-23T04:44:00.051Z,0.00
2022-10-23T04:45:03.005Z,0.00
2022-10-23T04:46:00.011Z,0.00
2022-10-23T04:46:59.980Z,0.00
2022-10-23T04:47:59.967Z,0.00
2022-10-23T04:48:59.960Z,0.00
2022-10-23T04:49:59.950Z,0.00
2022-10-23T04:50:59.948Z,0.00
2022-10-23T04:51:59.931Z,0.00
2022-10-23T04:52:59.924Z,0.00
2022-10-23T04:53:59.943Z,0.00
2022-10-23T04:54:59.902Z,0.00
2022-10-23T04:55:59.882Z,0.00
2022-10-23T04:56:59.884Z,0.00
2022-10-23T04:57:59.862Z,0.00
2022-10-23T04:58:59.923Z,0.00
2022-10-23T05:00:02.847Z,0.00
2022-10-23T05:00:59.978Z,0.00
2022-10-23T05:01:59.893Z,0.00
2022-10-23T05:02:59.816Z,0.00
2022-10-23T05:03:59.805Z,0.00
2022-10-23T05:04:59.784Z,0.00
2022-10-23T05:05:59.785Z,0.00
2022-10-23T05:06:59.784Z,0.00
2022-10-23T05:07:59.761Z,0.00
2022-10-23T05:08:59.752Z,0.00
2022-10-23T05:09:59.774Z,0.00
2022-10-23T05:10:59.741Z,0.00
2022-10-23T05:11:59.718Z,0.00
2022-10-23T05:12:59.705Z,0.00
2022-10-23T05:13:59.698Z,0.00
2022-10-23T05:15:02.707Z,0.00
2022-10-23T05:15:59.708Z,0.00
2022-10-23T05:16:59.678Z,0.00
2022-10-23T05:17:59.647Z,0.00
2022-10-23T05:18:59.678Z,0.00
2022-10-23T05:19:59.639Z,0.00
2022-10-23T05:20:59.748Z,0.00
2022-10-23T05:21:59.615Z,0.00
2022-10-23T05:22:59.568Z,1.00
2022-10-23T05:24:59.589Z,0.00
2022-10-23T05:25:59.588Z,0.00
2022-10-23T05:26:59.520Z,2.00
2022-10-23T05:27:59.512Z,1.00
2022-10-23T05:28:59.508Z,1.00
2022-10-23T05:30:02.533Z,0.00
2022-10-23T05:30:59.508Z,4.00
2022-10-23T05:31:59.460Z,4.00
2022-10-23T05:32:59.491Z,9.00
2022-10-23T05:33:59.433Z,3.00
2022-10-23T05:34:59.430Z,5.00
2022-10-23T05:35:59.411Z,5.00
2022-10-23T05:36:59.403Z,9.00
2022-10-23T05:37:59.391Z,6.00
2022-10-23T05:38:59.404Z,11.00
2022-10-23T05:39:59.372Z,14.00
2022-10-23T05:40:59.386Z,17.00
2022-10-23T05:41:59.361Z,22.00
2022-10-23T05:42:59.343Z,30.00
2022-10-23T05:43:59.439Z,32.00
2022-10-23T05:45:02.321Z,40.00
2022-10-23T05:45:59.343Z,50.00
2022-10-23T05:46:59.444Z,61.00
2022-10-23T05:48:10.685Z,65.00
2022-10-23T05:49:00.355Z,75.00
2022-10-23T05:49:59.264Z,90.00
2022-10-23T05:50:59.286Z,98.00
2022-10-23T05:51:59.254Z,110.00
2022-10-23T05:52:59.240Z,123.00
2022-10-23T05:53:59.236Z,131.00
2022-10-23T05:54:59.222Z,152.00
2022-10-23T05:55:59.238Z,175.00
2022-10-23T05:56:59.228Z,187.00
2022-10-23T05:57:59.188Z,212.00
2022-10-23T05:58:59.184Z,235.00
2022-10-23T06:00:02.184Z,249.00
2022-10-23T06:00:59.256Z,263.00
2022-10-23T06:01:59.418Z,285.00
2022-10-23T06:02:59.148Z,303.00
2022-10-23T06:03:59.129Z,326.00
2022-10-23T06:04:59.117Z,347.00
2022-10-23T06:05:59.109Z,368.00
2022-10-23T06:06:59.105Z,351.00
2022-10-23T06:07:59.088Z,433.00
2022-10-23T06:08:59.076Z,475.00
2022-10-23T06:09:59.063Z,467.00
2022-10-23T06:10:59.062Z,514.00
2022-10-23T06:11:59.049Z,562.00
2022-10-23T06:12:59.049Z,572.00
2022-10-23T06:13:59.037Z,563.00
2022-10-23T06:15:02.019Z,566.00
2022-10-23T06:15:59.027Z,671.00
2022-10-23T06:16:58.998Z,726.00
2022-10-23T06:17:58.998Z,741.00
2022-10-23T06:18:58.979Z,761.00
2022-10-23T06:19:58.972Z,766.00
2022-10-23T06:20:58.961Z,855.00
2022-10-23T06:21:58.941Z,946.00
2022-10-23T06:22:58.933Z,942.00
2022-10-23T06:23:58.949Z,1003.00
2022-10-23T06:24:58.913Z,1022.00
2022-10-23T06:25:58.910Z,974.00
2022-10-23T06:26:58.893Z,992.00
2022-10-23T06:27:58.882Z,1275.00
2022-10-23T06:28:58.883Z,1188.00
2022-10-23T06:30:01.883Z,1667.00
2022-10-23T06:30:58.878Z,1213.00
2022-10-23T06:31:58.844Z,1339.00
2022-10-23T06:33:02.040Z,1617.00
2022-10-23T06:33:58.829Z,1430.00
2022-10-23T06:34:58.836Z,1156.00
2022-10-23T06:35:58.801Z,1040.00
2022-10-23T06:36:58.785Z,1700.00
2022-10-23T06:37:58.809Z,2303.00
2022-10-23T06:39:58.763Z,1631.00
2022-10-23T06:40:58.758Z,1734.00
2022-10-23T06:41:58.746Z,1799.00
2022-10-23T06:42:58.736Z,1607.00
2022-10-23T06:43:58.717Z,1580.00
2022-10-23T06:45:04.917Z,1737.00
2022-10-23T06:45:58.706Z,1783.00
2022-10-23T06:46:58.698Z,1776.00
2022-10-23T06:47:58.678Z,2167.00
2022-10-23T06:48:58.666Z,2336.00
2022-10-23T06:49:58.689Z,2013.00
2022-10-23T06:50:58.649Z,1902.00
2022-10-23T06:51:58.629Z,2172.00
2022-10-23T06:52:58.627Z,2210.00
2022-10-23T06:53:58.627Z,2294.00
2022-10-23T06:54:58.730Z,2119.00
2022-10-23T06:55:58.598Z,2640.00
2022-10-23T06:56:58.578Z,2394.00
2022-10-23T06:57:58.580Z,2112.00
2022-10-23T06:58:58.577Z,1931.00
2022-10-23T07:00:01.595Z,2429.00
2022-10-23T07:00:58.669Z,2356.00
2022-10-23T07:01:58.542Z,2153.00
2022-10-23T07:02:58.532Z,2499.00
2022-10-23T07:03:58.519Z,2698.00
2022-10-23T07:04:58.538Z,2741.00
2022-10-23T07:05:58.492Z,2515.00
2022-10-23T07:06:58.468Z,2548.00
2022-10-23T07:07:58.463Z,2881.00
2022-10-23T07:08:58.456Z,2715.00
2022-10-23T07:09:58.453Z,3085.00
2022-10-23T07:10:58.441Z,3019.00
2022-10-23T07:11:58.431Z,2886.00
2022-10-23T07:12:58.442Z,3497.00
2022-10-23T07:13:58.431Z,3508.00
2022-10-23T07:15:01.402Z,3804.00
2022-10-23T07:15:58.403Z,3335.00
2022-10-23T07:16:58.382Z,4033.00
2022-10-23T07:17:58.367Z,3836.00
2022-10-23T07:18:58.356Z,3968.00
2022-10-23T07:19:58.342Z,3875.00
2022-10-23T07:20:58.333Z,6077.00
2022-10-23T07:21:58.332Z,5638.00
2022-10-23T07:22:58.333Z,4310.00
2022-10-23T07:23:58.307Z,4795.00
2022-10-23T07:24:58.295Z,6054.00
2022-10-23T07:25:58.306Z,5068.00
2022-10-23T07:26:58.286Z,7013.00
2022-10-23T07:27:58.257Z,3230.00
2022-10-23T07:28:58.257Z,8163.00
2022-10-23T07:30:01.245Z,4498.00
2022-10-23T07:30:58.252Z,3798.00
2022-10-23T07:31:58.217Z,7166.00
2022-10-23T07:32:58.206Z,4881.00
2022-10-23T07:33:58.205Z,5352.00
2022-10-23T07:34:58.190Z,5517.00
2022-10-23T07:35:58.183Z,5040.00
2022-10-23T07:36:58.190Z,3281.00
2022-10-23T07:37:58.171Z,6926.00
2022-10-23T07:38:58.140Z,4038.00
2022-10-23T07:39:58.138Z,2946.00
2022-10-23T07:40:58.130Z,7081.00
2022-10-23T07:41:58.114Z,10990.00
2022-10-23T07:42:58.129Z,7125.00
2022-10-23T07:43:58.120Z,8427.00
2022-10-23T07:45:01.089Z,6872.00
2022-10-23T07:45:58.094Z,7628.00
2022-10-23T07:46:58.136Z,9070.00
2022-10-23T07:47:58.052Z,9105.00
2022-10-23T07:48:58.061Z,7610.00
2022-10-23T07:49:58.035Z,5383.00
2022-10-23T07:50:58.040Z,6628.00
2022-10-23T07:51:58.141Z,6899.00
2022-10-23T07:52:59.130Z,6310.00
2022-10-23T07:53:58.003Z,5387.00
2022-10-23T07:54:57.973Z,4281.00
2022-10-23T07:55:57.963Z,5376.00
2022-10-23T07:56:57.953Z,5154.00
2022-10-23T07:57:57.943Z,6201.00
2022-10-23T07:58:57.987Z,9242.00
2022-10-23T08:00:00.929Z,10347.00
2022-10-23T08:00:57.994Z,15634.00
2022-10-23T08:01:58.051Z,9243.00
2022-10-23T08:02:57.901Z,10585.00
2022-10-23T08:03:58.038Z,11320.00
2022-10-23T08:04:57.874Z,4472.00
2022-10-23T08:05:57.864Z,11076.00
2022-10-23T08:06:57.857Z,15874.00
2022-10-23T08:07:57.843Z,12079.00
2022-10-23T08:08:59.901Z,7279.00
2022-10-23T08:09:57.826Z,8945.00
2022-10-23T08:10:57.818Z,12369.00
2022-10-23T08:11:57.806Z,9287.00
2022-10-23T08:12:57.798Z,10837.00
2022-10-23T08:13:57.782Z,12198.00
2022-10-23T08:15:00.805Z,12416.00
2022-10-23T08:15:57.780Z,10702.00
2022-10-23T08:16:57.761Z,8385.00
2022-10-23T08:17:57.737Z,8723.00
2022-10-23T08:18:57.737Z,7738.00
2022-10-23T08:19:57.738Z,14582.00
2022-10-23T08:20:57.708Z,7301.00
2022-10-23T08:21:57.698Z,2948.00
2022-10-23T08:22:57.705Z,10263.00
2022-10-23T08:23:57.796Z,9562.00
2022-10-23T08:24:57.665Z,10778.00
2022-10-23T08:25:57.649Z,9106.00
2022-10-23T08:26:57.652Z,5864.00
2022-10-23T08:27:57.630Z,5534.00
2022-10-23T08:28:57.657Z,5875.00
2022-10-23T08:30:00.613Z,5357.00
2022-10-23T08:30:57.622Z,3132.00
2022-10-23T08:31:57.598Z,9294.00
2022-10-23T08:32:57.592Z,5421.00
2022-10-23T08:33:57.691Z,8074.00
2022-10-23T08:34:57.570Z,6216.00
2022-10-23T08:35:57.553Z,6066.00
2022-10-23T08:36:57.542Z,12299.00
2022-10-23T08:37:57.530Z,12191.00
2022-10-23T08:38:57.515Z,15326.00
2022-10-23T08:39:57.516Z,10642.00
2022-10-23T08:40:57.504Z,13133.00
2022-10-23T08:41:57.557Z,13859.00
2022-10-23T08:42:57.495Z,12901.00
2022-10-23T08:43:57.599Z,12098.00
2022-10-23T08:45:00.453Z,14022.00
2022-10-23T08:45:57.466Z,7028.00
2022-10-23T08:46:57.443Z,15025.00
2022-10-23T08:47:57.475Z,15363.00
2022-10-23T08:48:57.424Z,9682.00
2022-10-23T08:49:57.417Z,8768.00
2022-10-23T08:50:57.395Z,3951.00
2022-10-23T08:51:57.388Z,16027.00
2022-10-23T08:52:57.406Z,8461.00
2022-10-23T08:53:57.367Z,9068.00
2022-10-23T08:54:57.349Z,11385.00
2022-10-23T08:55:57.340Z,9955.00
2022-10-23T08:56:57.347Z,13846.00
2022-10-23T08:57:57.330Z,10573.00
2022-10-23T08:58:57.404Z,8621.00
2022-10-23T09:00:00.331Z,8496.00
2022-10-23T09:00:57.379Z,11848.00
2022-10-23T09:01:57.345Z,9495.00
2022-10-23T09:02:57.269Z,12441.00
2022-10-23T09:03:57.302Z,12896.00
2022-10-23T09:04:57.249Z,12285.00
2022-10-23T09:05:57.229Z,13039.00
2022-10-23T09:06:57.280Z,12266.00
2022-10-23T09:07:57.217Z,11110.00
2022-10-23T09:08:57.204Z,13055.00
2022-10-23T09:09:57.200Z,14812.00
2022-10-23T09:10:57.202Z,11922.00
2022-10-23T09:11:57.173Z,11465.00
2022-10-23T09:12:57.162Z,11644.00
2022-10-23T09:13:57.152Z,12267.00
2022-10-23T09:15:00.187Z,10703.00
2022-10-23T09:15:57.151Z,9799.00
2022-10-23T09:16:57.123Z,14823.00
2022-10-23T09:17:57.126Z,9061.00
2022-10-23T09:18:57.102Z,8618.00
2022-10-23T09:19:57.094Z,8790.00
2022-10-23T09:20:57.083Z,8689.00
2022-10-23T09:21:57.065Z,8394.00
2022-10-23T09:22:57.084Z,7949.00
2022-10-23T09:23:57.050Z,7791.00
2022-10-23T09:24:57.160Z,7632.00
2022-10-23T09:25:57.152Z,7383.00
2022-10-23T09:26:57.064Z,7397.00
2022-10-23T09:27:59.081Z,7621.00
2022-10-23T09:28:57.038Z,7845.00
2022-10-23T09:29:59.998Z,7906.00
2022-10-23T09:30:56.999Z,8208.00
2022-10-23T09:31:56.967Z,8257.00
2022-10-23T09:32:56.988Z,7984.00
2022-10-23T09:33:56.941Z,7920.00
2022-10-23T09:34:56.938Z,7945.00
2022-10-23T09:35:56.931Z,8095.00
2022-10-23T09:36:56.949Z,8451.00
2022-10-23T09:37:56.933Z,8724.00
2022-10-23T09:38:56.890Z,9080.00
2022-10-23T09:39:56.882Z,9993.00
2022-10-23T09:40:56.875Z,10465.00
2022-10-23T09:41:57.184Z,10852.00
2022-10-23T09:42:56.875Z,10133.00
2022-10-23T09:43:56.841Z,9500.00
2022-10-23T09:44:59.830Z,9104.00
2022-10-23T09:45:56.847Z,8960.00
2022-10-23T09:46:56.807Z,8985.00
2022-10-23T09:47:56.812Z,8893.00
2022-10-23T09:48:57.709Z,8721.00
2022-10-23T09:49:56.784Z,8666.00
2022-10-23T09:50:56.782Z,8312.00
2022-10-23T09:51:56.763Z,4468.00
2022-10-23T09:52:56.782Z,6749.00
2022-10-23T09:53:56.740Z,12408.00
2022-10-23T09:54:56.735Z,17865.00
2022-10-23T09:55:56.724Z,16620.00
2022-10-23T09:56:56.714Z,12323.00
2022-10-23T09:57:56.705Z,12603.00
2022-10-23T09:58:56.682Z,12681.00
2022-10-23T09:59:59.672Z,13228.00
2022-10-23T10:00:56.751Z,12653.00
2022-10-23T10:01:56.831Z,18490.00
2022-10-23T10:02:56.647Z,11912.00
2022-10-23T10:03:56.666Z,17521.00
2022-10-23T10:04:56.626Z,22055.00
2022-10-23T10:05:56.608Z,16855.00
2022-10-23T10:06:56.610Z,17589.00
2022-10-23T10:07:56.594Z,14624.00
2022-10-23T10:08:56.589Z,17595.00
2022-10-23T10:09:56.568Z,17669.00
2022-10-23T10:10:56.575Z,13623.00
2022-10-23T10:11:56.544Z,12146.00
2022-10-23T10:13:56.533Z,19349.00
2022-10-23T10:14:59.628Z,21331.00
2022-10-23T10:15:56.520Z,16282.00
2022-10-23T10:16:56.537Z,9794.00
2022-10-23T10:17:56.522Z,16314.00
2022-10-23T10:18:56.470Z,19810.00
2022-10-23T10:19:56.463Z,24447.00
2022-10-23T10:20:56.454Z,7000.00
2022-10-23T10:21:56.473Z,18284.00
2022-10-23T10:22:56.445Z,21881.00
2022-10-23T10:23:56.423Z,8887.00
2022-10-23T10:24:56.414Z,16130.00
2022-10-23T10:25:56.403Z,14083.00
2022-10-23T10:26:56.414Z,9024.00
2022-10-23T10:27:56.402Z,22365.00
2022-10-23T10:28:56.383Z,7825.00
2022-10-23T10:29:59.363Z,26843.00
2022-10-23T10:30:56.363Z,13719.00
2022-10-23T10:31:56.335Z,19969.00
2022-10-23T10:32:56.433Z,29462.00
2022-10-23T10:33:56.326Z,13639.00
2022-10-23T10:34:56.600Z,31452.00
2022-10-23T10:35:56.443Z,8087.00
2022-10-23T10:36:56.293Z,22912.00
2022-10-23T10:37:56.287Z,20139.00
2022-10-23T10:38:56.278Z,18475.00
2022-10-23T10:39:56.422Z,14400.00
2022-10-23T10:40:56.239Z,16509.00
2022-10-23T10:41:56.247Z,15635.00
2022-10-23T10:42:56.239Z,13557.00
2022-10-23T10:43:56.207Z,12277.00
2022-10-23T10:44:59.213Z,11847.00
2022-10-23T10:45:56.240Z,12098.00
2022-10-23T10:46:56.189Z,11303.00
2022-10-23T10:47:56.182Z,11473.00
2022-10-23T10:48:56.162Z,10277.00
2022-10-23T10:49:56.150Z,9822.00
2022-10-23T10:50:56.184Z,10561.00
2022-10-23T10:51:56.136Z,14284.00
2022-10-23T10:52:56.131Z,12771.00
2022-10-23T10:53:56.112Z,12848.00
2022-10-23T10:54:56.105Z,11782.00
2022-10-23T10:55:56.148Z,11010.00
2022-10-23T10:56:56.083Z,9817.00
2022-10-23T10:57:59.221Z,9143.00
2022-10-23T10:58:56.064Z,8796.00
2022-10-23T10:59:59.054Z,8514.00
2022-10-23T11:00:56.109Z,8069.00
2022-10-23T11:01:56.224Z,7900.00
2022-10-23T11:02:56.028Z,7139.00
2022-10-23T11:03:56.014Z,8250.00
2022-10-23T11:04:56.023Z,8449.00
2022-10-23T11:05:56.028Z,7646.00
2022-10-23T11:06:55.977Z,11601.00
2022-10-23T11:07:55.965Z,8861.00
2022-10-23T11:08:57.681Z,8785.00
2022-10-23T11:09:56.947Z,8066.00
2022-10-23T11:10:55.983Z,7798.00
2022-10-23T11:11:55.927Z,8070.00
2022-10-23T11:12:55.923Z,9103.00
2022-10-23T11:13:55.897Z,8763.00
2022-10-23T11:14:58.890Z,8598.00
2022-10-23T11:15:55.905Z,8150.00
2022-10-23T11:16:55.877Z,7756.00
2022-10-23T11:17:55.869Z,7365.00
2022-10-23T11:18:55.867Z,7589.00
2022-10-23T11:19:55.842Z,7947.00
2022-10-23T11:20:55.859Z,8341.00
2022-10-23T11:21:55.824Z,4589.00
2022-10-23T11:22:55.813Z,22181.00
2022-10-23T11:23:55.881Z,6442.00
2022-10-23T11:24:58.091Z,18038.00
2022-10-23T11:25:55.773Z,10567.00
2022-10-23T11:26:55.789Z,10269.00
2022-10-23T11:27:58.126Z,9131.00
2022-10-23T11:28:55.744Z,13719.00
2022-10-23T11:29:58.744Z,12439.00
2022-10-23T11:30:55.745Z,12255.00
2022-10-23T11:31:55.721Z,11112.00
2022-10-23T11:32:55.828Z,10407.00
2022-10-23T11:33:55.725Z,10304.00
2022-10-23T11:34:55.687Z,9963.00
2022-10-23T11:35:55.688Z,9582.00
2022-10-23T11:36:55.690Z,8887.00
2022-10-23T11:37:55.658Z,8242.00
2022-10-23T11:38:55.642Z,7594.00
2022-10-23T11:39:55.625Z,7338.00
2022-10-23T11:40:55.617Z,7978.00
2022-10-23T11:41:55.604Z,8359.00
2022-10-23T11:42:55.607Z,8000.00
2022-10-23T11:43:55.709Z,7723.00
2022-10-23T11:44:58.590Z,7120.00
2022-10-23T11:45:55.597Z,7680.00
2022-10-23T11:46:55.549Z,7642.00
2022-10-23T11:47:55.558Z,8375.00
2022-10-23T11:48:55.539Z,9292.00
2022-10-23T11:49:55.520Z,10331.00
2022-10-23T11:50:55.521Z,10564.00
2022-10-23T11:51:55.507Z,10804.00
2022-10-23T11:53:12.785Z,10738.00
2022-10-23T11:53:56.481Z,10050.00
2022-10-23T11:54:55.474Z,7696.00
2022-10-23T11:55:55.462Z,22597.00
2022-10-23T11:56:55.461Z,12240.00
2022-10-23T11:57:55.451Z,7698.00
2022-10-23T11:58:55.437Z,17263.00
2022-10-23T11:59:58.440Z,18707.00
2022-10-23T12:00:55.426Z,17508.00
2022-10-23T12:01:55.480Z,22478.00
2022-10-23T12:02:58.991Z,23187.00
2022-10-23T12:03:55.382Z,19982.00
2022-10-23T12:04:55.365Z,24677.00
2022-10-23T12:06:55.414Z,19713.00
2022-10-23T12:07:55.337Z,17978.00
2022-10-23T12:08:55.326Z,19024.00
2022-10-23T12:09:55.308Z,17231.00
2022-10-23T12:10:55.306Z,20963.00
2022-10-23T12:11:55.298Z,15045.00
2022-10-23T12:12:55.278Z,20336.00
2022-10-23T12:13:55.273Z,17312.00
2022-10-23T12:14:58.305Z,15745.00
2022-10-23T12:15:58.469Z,18943.00
2022-10-23T12:16:55.247Z,12183.00
2022-10-23T12:17:55.279Z,13885.00
2022-10-23T12:18:55.222Z,14061.00
2022-10-23T12:19:55.228Z,17691.00
2022-10-23T12:20:55.210Z,12147.00
2022-10-23T12:21:55.200Z,18155.00
2022-10-23T12:22:55.182Z,13272.00
2022-10-23T12:23:55.181Z,11861.00
2022-10-23T12:24:55.152Z,11843.00
2022-10-23T12:25:55.145Z,9975.00
2022-10-23T12:26:55.143Z,8587.00
2022-10-23T12:27:55.122Z,7834.00
2022-10-23T12:28:55.144Z,7538.00
2022-10-23T12:29:58.104Z,7295.00
2022-10-23T12:31:55.091Z,7386.00
2022-10-23T12:32:55.104Z,7279.00
2022-10-23T12:33:55.058Z,7693.00
2022-10-23T12:34:55.057Z,7844.00
2022-10-23T12:35:55.045Z,7622.00
2022-10-23T12:36:55.036Z,7024.00
2022-10-23T12:37:55.025Z,6437.00
2022-10-23T12:38:55.008Z,6068.00
2022-10-23T12:39:55.040Z,6029.00